Time;durP1;ratioP1;P1;durP2;ratioP2;P2;SDS_P1;SDS_P2;PMS_P1;PMS_P2;Temp;Humidity;BMP_temperature;BMP_pressure;BME280_temperature;BME280_humidity;BME280_pressure;Samples;Min_cycle;Max_cycle;Signal;HPM_P1;HPM_P2
2022/09/20 00:00:44;;;;;;;9.57;2.88;;;11.40;99.90;;;;;;5051473;28;20091;-72
2022/09/20 00:03:11;;;;;;;8.70;3.17;;;11.50;99.90;;;;;;5033478;28;20068;-73
2022/09/20 00:05:40;;;;;;;7.90;3.13;;;11.50;99.90;;;;;;5033762;28;20029;-74
2022/09/20 00:08:08;;;;;;;6.60;2.83;;;11.50;99.90;;;;;;5033741;28;20128;-74
2022/09/20 00:10:38;;;;;;;5.50;2.72;;;11.50;99.90;;;;;;5032963;28;20765;-74
2022/09/20 00:13:05;;;;;;;5.80;3.00;;;11.40;99.90;;;;;;5033687;28;20056;-73
2022/09/20 00:15:32;;;;;;;9.23;2.80;;;11.60;99.90;;;;;;5033612;28;20026;-73
2022/09/20 00:17:58;;;;;;;8.93;3.13;;;11.60;99.90;;;;;;5032682;28;20076;-73
2022/09/20 00:20:23;;;;;;;5.90;3.15;;;11.60;99.90;;;;;;5033120;28;20502;-73
2022/09/20 00:22:49;;;;;;;10.63;2.83;;;11.70;99.90;;;;;;5032723;28;20420;-72
2022/09/20 00:25:16;;;;;;;3.55;2.05;;;11.70;99.90;;;;;;5033157;28;20025;-73
2022/09/20 00:27:42;;;;;;;7.55;2.30;;;11.60;99.90;;;;;;5032857;28;20068;-73
2022/09/20 00:30:09;;;;;;;7.60;2.88;;;11.60;99.90;;;;;;5032068;28;20516;-73
2022/09/20 00:32:34;;;;;;;5.50;2.30;;;11.50;99.90;;;;;;5033242;28;20067;-73
2022/09/20 00:35:12;;;;;;;3.75;1.85;;;11.50;99.90;;;;;;5033133;28;20029;-72
2022/09/20 00:37:40;;;;;;;8.15;2.53;;;11.40;99.90;;;;;;5032529;28;20040;-73
2022/09/20 00:40:15;;;;;;;3.78;1.95;;;11.30;99.90;;;;;;5032872;28;20043;-73
2022/09/20 00:42:41;;;;;;;8.45;2.88;;;11.20;99.90;;;;;;5033271;28;20032;-73
2022/09/20 00:45:22;;;;;;;4.28;2.35;;;11.20;99.90;;;;;;5031839;28;20448;-73
2022/09/20 00:47:51;;;;;;;5.00;2.75;;;11.10;99.90;;;;;;5033190;28;20025;-73
2022/09/20 00:50:23;;;;;;;5.75;2.47;;;11.20;99.90;;;;;;5035225;28;20022;-73
2022/09/20 00:52:55;;;;;;;13.43;3.08;;;11.10;99.90;;;;;;5052343;28;20036;-72
2022/09/20 00:55:21;;;;;;;7.00;2.90;;;11.20;99.90;;;;;;5052437;28;20025;-73
2022/09/20 00:57:47;;;;;;;6.38;3.28;;;11.20;99.90;;;;;;5052597;28;20033;-71
2022/09/20 01:00:13;;;;;;;4.90;2.67;;;11.20;99.90;;;;;;5051422;28;20028;-72
2022/09/20 01:02:50;;;;;;;5.97;2.92;;;11.20;99.90;;;;;;5052938;28;20021;-72
2022/09/20 01:05:18;;;;;;;8.88;3.05;;;11.30;99.90;;;;;;5051616;28;20021;-71
2022/09/20 01:07:47;;;;;;;8.45;3.47;;;11.40;99.90;;;;;;5052690;28;20028;-71
2022/09/20 01:10:12;;;;;;;5.82;2.95;;;11.40;99.90;;;;;;5052165;28;20025;-72
2022/09/20 01:12:39;;;;;;;4.32;2.72;;;11.40;99.90;;;;;;5051822;28;20373;-72
2022/09/20 01:15:08;;;;;;;5.85;3.17;;;11.40;99.90;;;;;;5052616;28;20028;-72
2022/09/20 01:17:36;;;;;;;5.03;3.05;;;11.50;99.90;;;;;;5052168;28;20032;-72
2022/09/20 01:20:11;;;;;;;4.07;2.70;;;11.60;99.90;;;;;;5051861;28;20021;-72
2022/09/20 01:23:07;;;;;;;4.80;2.78;;;11.60;99.90;;;;;;5038163;28;20017;-72
2022/09/20 01:26:01;;;;;;;4.72;2.70;;;11.60;99.90;;;;;;5031167;28;20044;-72
2022/09/20 01:28:29;;;;;;;6.22;2.10;;;11.60;99.90;;;;;;5030424;28;20067;-73
2022/09/20 01:31:24;;;;;;;5.07;3.00;;;11.50;99.90;;;;;;5052036;28;20025;-72
2022/09/20 01:33:59;;;;;;;6.60;2.78;;;11.50;99.90;;;;;;5051593;28;20035;-72
2022/09/20 01:36:28;;;;;;;9.85;2.70;;;11.50;99.90;;;;;;5051935;28;20024;-72
2022/09/20 01:39:31;;;;;;;2.75;2.08;;;11.40;99.90;;;;;;5052173;28;20123;-72
2022/09/20 01:41:59;;;;;;;6.35;2.30;;;11.50;99.90;;;;;;5047618;28;20037;-72
2022/09/20 01:45:02;;;;;;;4.32;2.33;;;11.50;99.90;;;;;;5051963;28;20039;-73
2022/09/20 01:47:56;;;;;;;8.40;4.18;;;11.50;99.90;;;;;;5042226;28;20024;-73
2022/09/20 01:50:57;;;;;;;6.93;3.20;;;11.50;99.90;;;;;;5042380;28;20079;-73
2022/09/20 01:53:33;;;;;;;3.58;2.50;;;11.60;99.90;;;;;;5051672;28;20114;-71
2022/09/20 01:56:37;;;;;;;5.43;2.10;;;11.70;99.90;;;;;;5051168;28;20078;-71
2022/09/20 01:59:47;;;;;;;5.18;2.17;;;11.70;99.90;;;;;;5051832;28;20048;-72
2022/09/20 02:02:51;;;;;;;6.80;2.35;;;11.70;99.90;;;;;;5032350;28;20553;-72
2022/09/20 02:05:39;;;;;;;8.23;2.83;;;11.70;99.90;;;;;;5051361;28;20490;-72
2022/09/20 02:08:17;;;;;;;5.90;2.63;;;11.70;99.90;;;;;;5040460;28;20025;-73
2022/09/20 02:11:19;;;;;;;7.25;2.78;;;11.80;99.90;;;;;;5051414;28;20025;-73
2022/09/20 02:14:00;;;;;;;12.98;3.20;;;11.70;99.90;;;;;;5027808;28;20021;-72
2022/09/20 02:16:34;;;;;;;7.53;2.47;;;11.70;99.90;;;;;;5039838;28;20492;-72
2022/09/20 02:19:40;;;;;;;4.70;2.30;;;11.70;99.90;;;;;;5039161;28;20182;-72
2022/09/20 02:22:44;;;;;;;13.73;2.85;;;11.70;99.90;;;;;;5042492;28;20072;-73
2022/09/20 02:25:37;;;;;;;7.05;1.90;;;11.60;99.90;;;;;;5050402;28;20120;-72
2022/09/20 02:28:12;;;;;;;8.57;1.95;;;11.70;99.90;;;;;;5055190;28;20072;-72
2022/09/20 02:30:43;;;;;;;4.70;1.65;;;11.60;99.90;;;;;;5050858;28;20017;-73
2022/09/20 02:34:07;;;;;;;4.35;2.10;;;11.60;99.90;;;;;;5046099;28;20025;-73
2022/09/20 02:36:58;;;;;;;8.32;2.28;;;11.60;99.90;;;;;;5033312;28;20496;-72
2022/09/20 02:39:35;;;;;;;;;;;11.60;99.90;;;;;;5041890;28;20044;-72
2022/09/20 02:42:24;;;;;;;5.03;1.80;;;11.50;99.90;;;;;;5054242;28;19905;-72
2022/09/20 02:45:10;;;;;;;9.43;2.20;;;11.60;99.90;;;;;;5054750;28;20051;-72
2022/09/20 02:47:41;;;;;;;11.05;1.80;;;11.60;99.90;;;;;;5051935;28;20111;-73
2022/09/20 02:50:33;;;;;;;6.18;1.85;;;11.60;99.90;;;;;;5044817;28;20124;-73
2022/09/20 02:53:26;;;;;;;7.53;2.30;;;11.60;99.90;;;;;;5039624;28;20040;-72
2022/09/20 02:56:23;;;;;;;5.70;1.65;;;11.60;99.90;;;;;;5054909;28;20024;-72
2022/09/20 02:59:17;;;;;;;6.45;1.95;;;11.60;99.90;;;;;;5054277;28;20107;-73
2022/09/20 03:02:07;;;;;;;2.67;1.65;;;11.60;99.90;;;;;;5055374;28;20083;-73
2022/09/20 03:04:52;;;;;;;6.45;1.90;;;11.60;99.90;;;;;;5054403;28;20024;-73
2022/09/20 03:07:38;;;;;;;7.28;2.08;;;11.60;99.90;;;;;;5054712;28;20036;-72
2022/09/20 03:10:23;;;;;;;5.35;1.80;;;11.50;99.90;;;;;;5054876;28;20108;-72
2022/09/20 03:13:25;;;;;;;5.63;2.17;;;11.50;99.90;;;;;;5054054;28;20109;-72
2022/09/20 03:16:22;;;;;;;8.48;1.70;;;11.60;99.90;;;;;;5032662;28;20112;-73
2022/09/20 03:19:16;;;;;;;6.68;2.40;;;11.50;99.90;;;;;;5042699;28;20033;-72
2022/09/20 03:22:12;;;;;;;5.97;2.58;;;11.50;99.90;;;;;;5051499;28;20055;-72
2022/09/20 03:24:55;;;;;;;6.70;4.90;;;11.50;99.90;;;;;;5048133;28;20056;-73
2022/09/20 03:27:31;;;;;;;12.38;8.40;;;11.50;99.90;;;;;;5057145;28;20053;-73
2022/09/20 03:30:23;;;;;;;15.00;8.68;;;11.50;99.90;;;;;;5057020;28;20090;-73
2022/09/20 03:33:09;;;;;;;12.50;7.60;;;11.50;99.90;;;;;;5056185;28;20025;-72
2022/09/20 03:35:52;;;;;;;10.75;5.75;;;11.40;99.90;;;;;;5056298;28;20021;-72
2022/09/20 03:38:17;;;;;;;8.65;4.47;;;11.40;99.90;;;;;;5058151;28;20041;-72
2022/09/20 03:41:11;;;;;;;13.93;4.65;;;11.40;99.90;;;;;;5057182;28;20354;-72
2022/09/20 03:43:48;;;;;;;9.43;5.22;;;11.40;99.90;;;;;;5060963;28;20032;-72
2022/09/20 03:46:28;;;;;;;6.28;4.40;;;11.30;99.90;;;;;;5061678;28;20075;-71
2022/09/20 03:49:12;;;;;;;6.80;4.38;;;11.40;99.90;;;;;;5054733;28;20025;-72
2022/09/20 03:51:38;;;;;;;6.03;4.00;;;11.30;99.90;;;;;;5057956;28;20040;-72
2022/09/20 03:54:36;;;;;;;8.23;5.10;;;11.30;99.90;;;;;;5055800;28;20013;-73
2022/09/20 03:57:10;;;;;;;12.27;6.07;;;11.30;99.90;;;;;;5050423;28;20091;-73
2022/09/20 03:59:54;;;;;;;9.48;4.90;;;11.30;99.90;;;;;;5054632;28;20100;-74
2022/09/20 04:02:38;;;;;;;14.80;5.45;;;11.30;99.90;;;;;;5053186;28;20033;-74
2022/09/20 04:05:15;;;;;;;6.20;5.18;;;11.30;99.90;;;;;;5053773;28;20055;-74
2022/09/20 04:08:03;;;;;;;7.80;4.25;;;11.40;99.90;;;;;;5053800;28;20031;-73
2022/09/20 04:10:42;;;;;;;8.35;5.88;;;11.30;99.90;;;;;;5053331;28;20036;-74
2022/09/20 04:13:38;;;;;;;12.13;4.43;;;11.30;99.90;;;;;;5053533;28;20029;-74
2022/09/20 04:16:28;;;;;;;7.10;3.33;;;11.40;99.90;;;;;;5052963;28;20032;-74
2022/09/20 04:19:15;;;;;;;9.30;3.83;;;11.40;99.90;;;;;;5053527;28;20539;-74
2022/09/20 04:21:55;;;;;;;4.88;3.17;;;11.50;99.90;;;;;;5050727;28;20061;-74
2022/09/20 04:24:43;;;;;;;12.40;3.13;;;11.50;99.90;;;;;;5044106;28;20025;-72
2022/09/20 04:27:17;;;;;;;4.25;2.88;;;11.50;99.90;;;;;;5052913;28;20382;-73
2022/09/20 04:30:04;;;;;;;6.20;3.28;;;11.50;99.90;;;;;;5052833;28;20059;-73
2022/09/20 04:32:57;;;;;;;6.45;3.10;;;11.50;99.90;;;;;;5053095;28;20052;-73
2022/09/20 04:39:00;;;;;;;8.73;4.13;;;11.50;99.90;;;;;;5052587;28;20047;-73
2022/09/20 04:41:48;;;;;;;7.25;3.42;;;11.50;99.90;;;;;;5052620;28;20377;-73
2022/09/20 04:44:56;;;;;;;6.35;2.88;;;11.50;99.90;;;;;;5052004;28;20393;-73
2022/09/20 04:47:38;;;;;;;5.93;3.08;;;11.50;99.90;;;;;;5052812;28;20081;-73
2022/09/20 04:50:28;;;;;;;11.02;3.53;;;11.50;99.90;;;;;;5052652;28;20022;-73
2022/09/20 04:53:21;;;;;;;6.45;3.67;;;11.40;99.90;;;;;;5053094;28;20103;-72
2022/09/20 04:55:54;;;;;;;7.55;3.75;;;11.50;99.90;;;;;;5052781;28;20032;-73
2022/09/20 04:58:58;;;;;;;8.23;3.63;;;11.50;99.90;;;;;;5051788;28;20438;-73
2022/09/20 05:01:33;;;;;;;5.68;2.70;;;11.60;99.90;;;;;;5052715;28;20059;-72
2022/09/20 05:04:31;;;;;;;7.50;3.63;;;11.60;99.90;;;;;;5052680;28;20034;-73
2022/09/20 05:07:35;;;;;;;6.90;2.90;;;11.60;99.90;;;;;;5052736;28;20063;-72
2022/09/20 05:10:33;;;;;;;4.20;2.90;;;11.60;99.90;;;;;;5047531;28;20421;-72
2022/09/20 05:13:15;;;;;;;5.82;1.80;;;11.70;99.90;;;;;;5051890;28;20025;-72
2022/09/20 05:15:48;;;;;;;3.60;2.38;;;11.80;99.90;;;;;;5052653;28;20060;-72
2022/09/20 05:18:47;;;;;;;4.05;2.30;;;11.80;99.90;;;;;;5037920;28;20036;-73
2022/09/20 05:21:46;;;;;;;4.80;2.25;;;11.80;99.90;;;;;;5051947;28;20012;-72
2022/09/20 05:24:15;;;;;;;5.78;2.72;;;11.80;99.90;;;;;;5051866;28;20078;-73
2022/09/20 05:26:54;;;;;;;9.07;2.45;;;11.80;99.90;;;;;;5051087;28;20481;-72
2022/09/20 05:29:57;;;;;;;7.00;2.55;;;11.80;99.90;;;;;;5051954;28;20116;-72
2022/09/20 05:32:47;;;;;;;4.47;2.42;;;11.80;99.90;;;;;;5031263;28;20104;-72
2022/09/20 05:35:25;;;;;;;3.17;1.92;;;11.80;99.90;;;;;;5031786;28;20052;-72
2022/09/20 05:38:10;;;;;;;5.95;2.60;;;11.80;99.90;;;;;;5032102;28;20041;-72
2022/09/20 05:41:00;;;;;;;7.35;2.83;;;11.70;99.90;;;;;;5031148;28;20092;-73
2022/09/20 05:43:38;;;;;;;6.35;2.35;;;11.70;99.90;;;;;;5030171;28;20053;-73
2022/09/20 05:46:53;;;;;;;12.95;3.10;;;11.70;99.90;;;;;;5030553;28;20033;-73
2022/09/20 05:49:38;;;;;;;9.35;2.60;;;11.70;99.90;;;;;;5030263;28;20381;-73
2022/09/20 05:52:20;;;;;;;5.15;2.60;;;11.60;99.90;;;;;;5030029;28;20030;-73
2022/09/20 05:55:22;;;;;;;6.60;2.38;;;11.70;99.90;;;;;;5030164;28;20112;-73
2022/09/20 05:58:10;;;;;;;5.30;2.60;;;11.70;99.90;;;;;;5030725;28;20029;-73
2022/09/20 06:00:48;;;;;;;4.15;2.20;;;11.70;99.90;;;;;;5037470;28;20065;-73
2022/09/20 06:03:40;;;;;;;8.32;2.15;;;11.70;99.90;;;;;;5030495;28;20112;-73
2022/09/20 06:06:37;;;;;;;6.13;2.42;;;11.70;99.90;;;;;;5030246;28;20029;-73
2022/09/20 06:09:36;;;;;;;8.55;2.88;;;11.70;99.90;;;;;;5030458;28;20025;-73
2022/09/20 06:12:35;;;;;;;4.10;2.35;;;11.80;99.90;;;;;;5033626;28;20092;-73
2022/09/20 06:15:18;;;;;;;4.35;2.08;;;11.80;99.90;;;;;;5032210;28;20033;-73
2022/09/20 06:17:52;;;;;;;4.22;1.73;;;11.90;99.90;;;;;;5043514;28;20036;-72
2022/09/20 06:20:30;;;;;;;5.65;1.95;;;11.90;99.90;;;;;;5049227;28;20043;-73
2022/09/20 06:22:58;;;;;;;13.10;2.45;;;12.00;99.90;;;;;;5048901;28;20079;-72
2022/09/20 06:25:52;;;;;;;7.20;2.17;;;12.00;99.90;;;;;;5045832;28;20224;-73
2022/09/20 06:28:19;;;;;;;9.85;2.10;;;12.10;99.90;;;;;;5044458;28;20052;-72
2022/09/20 06:30:48;;;;;;;5.85;2.00;;;12.10;99.90;;;;;;5044819;28;20395;-74
2022/09/20 06:33:17;;;;;;;5.18;1.65;;;12.10;99.90;;;;;;5049430;28;20040;-74
2022/09/20 06:35:45;;;;;;;8.32;1.73;;;12.00;99.90;;;;;;5036189;28;20052;-72
2022/09/20 06:41:29;;;;;;;4.30;2.30;;;12.10;99.90;;;;;;5048021;28;20074;-72
2022/09/20 06:43:59;;;;;;;7.93;2.30;;;12.10;99.90;;;;;;5036852;28;20025;-72
2022/09/20 06:46:29;;;;;;;7.82;1.73;;;12.20;99.90;;;;;;5048240;28;20495;-74
2022/09/20 06:48:56;;;;;;;6.82;1.70;;;12.30;99.90;;;;;;5047385;28;20053;-72
2022/09/20 06:51:23;;;;;;;4.43;2.03;;;12.30;99.90;;;;;;5047122;28;20025;-72
2022/09/20 06:53:49;;;;;;;4.82;2.00;;;12.30;99.90;;;;;;5049863;28;20469;-73
2022/09/20 06:56:19;;;;;;;3.97;1.75;;;12.30;99.90;;;;;;5050511;28;20036;-73
2022/09/20 06:58:45;;;;;;;4.10;1.80;;;12.40;99.90;;;;;;5047375;28;20028;-72
2022/09/20 07:01:12;;;;;;;5.10;1.55;;;12.50;99.90;;;;;;5031354;28;20025;-73
2022/09/20 07:03:38;;;;;;;5.53;1.42;;;12.50;99.90;;;;;;5034257;28;20045;-73
2022/09/20 07:06:05;;;;;;;3.15;2.00;;;12.50;99.90;;;;;;5038557;28;20029;-73
2022/09/20 07:08:31;;;;;;;7.95;1.92;;;12.60;99.90;;;;;;5037927;28;20044;-73
2022/09/20 07:10:56;;;;;;;8.18;1.90;;;12.70;99.90;;;;;;5034281;28;20374;-73
2022/09/20 07:13:22;;;;;;;3.50;1.02;;;12.80;99.90;;;;;;5034396;28;20100;-73
2022/09/20 07:15:48;;;;;;;8.77;2.13;;;12.80;99.90;;;;;;5034524;28;20036;-73
2022/09/20 07:18:14;;;;;;;10.85;1.75;;;12.90;99.90;;;;;;5033441;28;20037;-72
2022/09/20 07:20:40;;;;;;;6.68;1.65;;;13.00;99.90;;;;;;5034451;28;20033;-73
2022/09/20 07:23:06;;;;;;;8.27;1.40;;;13.00;99.90;;;;;;5033218;28;20096;-72
2022/09/20 07:25:32;;;;;;;4.70;1.60;;;13.10;99.90;;;;;;5033688;28;20498;-74
2022/09/20 07:27:58;;;;;;;9.10;2.15;;;13.10;99.90;;;;;;5034197;28;20041;-74
2022/09/20 07:30:26;;;;;;;5.60;1.30;;;13.20;99.90;;;;;;5036349;28;20049;-71
2022/09/20 07:32:52;;;;;;;6.78;1.40;;;13.10;99.90;;;;;;5048586;28;20019;-73
2022/09/20 07:35:19;;;;;;;8.98;1.33;;;13.20;99.90;;;;;;5048014;28;20124;-73
2022/09/20 07:37:44;;;;;;;7.85;1.55;;;13.20;99.90;;;;;;5050166;28;20541;-74
2022/09/20 07:40:10;;;;;;;7.47;1.45;;;13.30;99.90;;;;;;5033552;28;20544;-76
2022/09/20 07:42:36;;;;;;;4.07;1.17;;;13.40;99.90;;;;;;5041788;28;20035;-74
2022/09/20 07:45:02;;;;;;;6.70;1.10;;;13.40;99.90;;;;;;5036750;28;20017;-72
2022/09/20 07:47:30;;;;;;;5.55;1.48;;;13.50;99.90;;;;;;5038152;28;20044;-76
2022/09/20 07:49:57;;;;;;;7.13;1.08;;;13.60;99.90;;;;;;5036483;28;20477;-74
2022/09/20 07:52:23;;;;;;;6.65;1.40;;;13.70;99.90;;;;;;5034608;28;20025;-74
2022/09/20 07:54:48;;;;;;;3.00;1.02;;;13.70;99.90;;;;;;5035707;28;20036;-74
2022/09/20 07:57:15;;;;;;;7.30;0.93;;;13.70;99.90;;;;;;5033937;28;20038;-76
2022/09/20 07:59:41;;;;;;;4.15;0.90;;;13.80;99.90;;;;;;5033865;28;20495;-76
2022/09/20 08:02:12;;;;;;;5.47;1.88;;;13.80;99.90;;;;;;5039909;28;20029;-77
2022/09/20 08:04:38;;;;;;;8.80;2.10;;;13.90;99.90;;;;;;5041522;28;20034;-76
2022/09/20 08:07:03;;;;;;;3.85;0.90;;;13.80;99.90;;;;;;5033310;28;20418;-77
2022/09/20 08:09:29;;;;;;;4.45;1.13;;;13.80;99.90;;;;;;5033627;28;20475;-77
2022/09/20 08:11:55;;;;;;;3.80;1.40;;;13.90;99.90;;;;;;5034070;28;20024;-77
2022/09/20 08:14:21;;;;;;;4.47;1.00;;;14.00;99.90;;;;;;5032199;28;20038;-78
2022/09/20 08:16:49;;;;;;;3.90;0.98;;;14.00;99.90;;;;;;5040447;28;20499;-78
2022/09/20 08:19:19;;;;;;;9.57;1.48;;;14.10;99.90;;;;;;5036690;28;20061;-78
2022/09/20 08:21:46;;;;;;;6.13;1.00;;;14.10;99.90;;;;;;5045039;28;20072;-79
2022/09/20 08:24:12;;;;;;;3.72;0.80;;;14.10;99.90;;;;;;5046312;28;20025;-74
2022/09/20 08:26:38;;;;;;;7.28;1.00;;;14.10;99.90;;;;;;5037305;28;20554;-81
2022/09/20 08:29:04;;;;;;;5.90;1.10;;;14.10;99.90;;;;;;5043898;28;20025;-80
2022/09/20 08:31:35;;;;;;;3.47;1.02;;;14.20;99.90;;;;;;5049019;28;20742;-80
2022/09/20 08:34:02;;;;;;;8.52;1.25;;;14.30;99.90;;;;;;5051920;28;20465;-80
2022/09/20 08:36:30;;;;;;;3.03;1.23;;;14.30;99.90;;;;;;5052136;28;20029;-79
2022/09/20 08:38:56;;;;;;;6.60;1.42;;;14.40;99.90;;;;;;5046860;28;20029;-80
2022/09/20 08:41:35;;;;;;;6.90;1.05;;;14.40;99.90;;;;;;5041059;28;20064;-80
2022/09/20 08:44:11;;;;;;;7.38;1.48;;;14.50;99.90;;;;;;5039258;28;20021;-80
2022/09/20 08:46:57;;;;;;;6.75;1.08;;;14.50;99.90;;;;;;5034522;28;20026;-80
2022/09/20 08:49:27;;;;;;;7.10;1.30;;;14.50;99.90;;;;;;5040048;28;20044;-80
2022/09/20 08:51:56;;;;;;;2.28;1.10;;;14.50;99.90;;;;;;5037086;28;20022;-81
2022/09/20 08:54:23;;;;;;;5.80;1.00;;;14.50;99.90;;;;;;5039429;28;20029;-79
2022/09/20 08:56:49;;;;;;;7.55;1.05;;;14.50;99.90;;;;;;5038640;28;20060;-80
2022/09/20 08:59:18;;;;;;;10.00;1.65;;;14.50;99.90;;;;;;5047206;28;20040;-80
2022/09/20 09:01:45;;;;;;;4.10;1.10;;;14.50;99.90;;;;;;5052765;28;20029;-79
2022/09/20 09:04:23;;;;;;;6.15;0.98;;;14.50;99.90;;;;;;5033680;28;20123;-81
2022/09/20 09:06:51;;;;;;;6.53;1.00;;;14.50;99.90;;;;;;5034223;28;20027;-79
2022/09/20 09:09:24;;;;;;;4.07;1.05;;;14.60;99.90;;;;;;5035990;28;20021;-81
2022/09/20 09:11:52;;;;;;;5.78;1.45;;;14.60;99.90;;;;;;5034290;28;20030;-80
2022/09/20 09:17:24;;;;;;;10.20;2.38;;;14.70;99.90;;;;;;5036874;28;20044;-79
2022/09/20 09:19:52;;;;;;;4.80;0.88;;;14.70;99.90;;;;;;5038833;28;20074;-79
2022/09/20 09:22:23;;;;;;;4.80;1.35;;;14.70;99.90;;;;;;5052295;28;20021;-81
2022/09/20 09:25:15;;;;;;;7.28;1.88;;;14.70;99.90;;;;;;5049998;28;20028;-81
2022/09/20 09:28:06;;;;;;;4.30;0.90;;;14.70;99.90;;;;;;5049166;28;20077;-82
2022/09/20 09:30:38;;;;;;;10.00;1.35;;;14.80;99.90;;;;;;5035945;28;20028;-83
2022/09/20 09:33:18;;;;;;;5.28;1.42;;;14.80;99.90;;;;;;5034377;28;20060;-82
2022/09/20 09:35:55;;;;;;;4.80;1.25;;;14.80;99.90;;;;;;5036640;28;20021;-82
2022/09/20 09:38:24;;;;;;;5.65;1.08;;;14.90;99.90;;;;;;5034919;28;20041;-82
2022/09/20 09:41:25;;;;;;;7.38;1.23;;;15.10;99.90;;;;;;5036726;28;20018;-84
2022/09/20 09:44:19;;;;;;;4.40;1.20;;;15.00;99.90;;;;;;5035078;28;20160;-83
2022/09/20 09:46:45;;;;;;;3.33;1.05;;;15.00;99.90;;;;;;5031526;28;20029;-76
2022/09/20 09:49:24;;;;;;;7.38;1.33;;;15.10;99.90;;;;;;5033984;28;20067;-80
2022/09/20 09:52:17;;;;;;;7.45;0.95;;;15.30;99.90;;;;;;5046639;28;20119;-80
2022/09/20 09:54:49;;;;;;;5.18;1.00;;;15.40;99.90;;;;;;5033169;28;20106;-79
2022/09/20 09:57:20;;;;;;;6.05;0.80;;;15.80;99.90;;;;;;5033747;28;20083;-80
2022/09/20 10:00:12;;;;;;;6.15;1.33;;;16.00;99.90;;;;;;5033053;28;20026;-79
2022/09/20 10:03:06;;;;;;;9.02;1.85;;;16.00;99.90;;;;;;5048841;28;20104;-80
2022/09/20 10:05:53;;;;;;;7.03;1.20;;;16.00;99.90;;;;;;5049214;28;20013;-79
2022/09/20 10:08:26;;;;;;;10.70;1.45;;;15.90;99.90;;;;;;5043520;28;20038;-79
2022/09/20 10:11:20;;;;;;;3.80;1.25;;;16.20;99.90;;;;;;5045860;28;20021;-79
2022/09/20 10:13:51;;;;;;;5.10;1.45;;;15.70;99.90;;;;;;5050251;28;20532;-80
2022/09/20 10:16:27;;;;;;;7.57;1.20;;;15.60;99.90;;;;;;5051557;28;20056;-80
2022/09/20 10:19:22;;;;;;;6.15;1.33;;;15.40;99.90;;;;;;5049277;28;20511;-80
2022/09/20 10:21:55;;;;;;;6.63;1.08;;;15.30;99.90;;;;;;5051039;28;20025;-80
2022/09/20 10:24:34;;;;;;;5.25;1.27;;;15.10;99.90;;;;;;5048908;28;20392;-79
2022/09/20 10:27:37;;;;;;;6.20;1.10;;;15.10;99.90;;;;;;5048639;28;20054;-79
2022/09/20 10:30:08;;;;;;;5.25;1.25;;;15.00;99.90;;;;;;5044982;28;20118;-79
2022/09/20 10:33:01;;;;;;;7.82;1.48;;;15.10;99.90;;;;;;5046414;28;20025;-80
2022/09/20 10:35:58;;;;;;;4.70;1.67;;;15.10;99.90;;;;;;5048126;28;20455;-79
2022/09/20 10:38:50;;;;;;;4.43;1.27;;;15.10;99.90;;;;;;5036632;28;20045;-81
2022/09/20 10:44:18;;;;;;;6.30;1.75;;;15.30;99.90;;;;;;5035798;28;20043;-77
2022/09/20 10:47:06;;;;;;;5.45;1.77;;;15.30;99.90;;;;;;5044996;28;20528;-77
2022/09/20 10:49:35;;;;;;;3.00;1.35;;;15.30;99.90;;;;;;5034821;28;20022;-77
2022/09/20 10:52:39;;;;;;;5.07;2.33;;;15.40;99.90;;;;;;5035531;28;20541;-76
2022/09/20 10:55:25;;;;;;;4.35;1.02;;;15.40;99.90;;;;;;5035704;28;20029;-77
2022/09/20 10:58:02;;;;;;;5.18;1.02;;;15.40;99.90;;;;;;5034743;28;20053;-78
2022/09/20 11:00:53;;;;;;;6.80;1.45;;;15.40;99.90;;;;;;5034429;28;20067;-75
2022/09/20 11:03:24;;;;;;;7.15;1.10;;;15.40;99.90;;;;;;5034405;28;20033;-78
2022/09/20 11:05:53;;;;;;;5.45;1.48;;;15.60;99.90;;;;;;5038347;28;20038;-78
2022/09/20 11:08:21;;;;;;;5.53;1.00;;;15.60;99.90;;;;;;5038143;28;20027;-78
2022/09/20 11:10:58;;;;;;;2.25;0.70;;;15.60;99.90;;;;;;5040858;28;20025;-78
2022/09/20 11:13:33;;;;;;;2.28;0.90;;;15.60;99.90;;;;;;5054409;28;20055;-76
2022/09/20 11:16:24;;;;;;;4.72;1.50;;;15.60;99.90;;;;;;5054892;28;20100;-77
2022/09/20 11:19:14;;;;;;;2.67;0.65;;;15.60;99.90;;;;;;5035373;28;20037;-77
2022/09/20 11:21:57;;;;;;;4.75;0.90;;;15.70;99.90;;;;;;5043211;28;20473;-78
2022/09/20 11:24:37;;;;;;;5.82;0.80;;;15.80;99.90;;;;;;5043020;28;20040;-77
2022/09/20 11:27:11;;;;;;;5.15;1.02;;;15.90;99.90;;;;;;5038155;28;20033;-77
2022/09/20 11:29:43;;;;;;;4.82;0.82;;;15.90;99.90;;;;;;5043200;28;20026;-78
2022/09/20 11:32:23;;;;;;;3.33;1.20;;;16.00;99.90;;;;;;5047990;28;20148;-78
2022/09/20 11:35:14;;;;;;;2.65;0.70;;;16.10;99.90;;;;;;5043711;28;20100;-77
2022/09/20 11:37:46;;;;;;;3.35;0.70;;;16.10;99.90;;;;;;5041622;28;20125;-77
2022/09/20 11:40:37;;;;;;;2.17;0.68;;;16.00;99.90;;;;;;5052083;28;20033;-77
2022/09/20 11:43:05;;;;;;;5.95;0.80;;;16.00;99.90;;;;;;5054588;28;20515;-78
2022/09/20 11:45:32;;;;;;;2.17;0.80;;;16.00;99.90;;;;;;5053123;28;20028;-77
2022/09/20 11:48:19;;;;;;;11.65;0.70;;;16.00;99.90;;;;;;5053693;28;20033;-77
2022/09/20 11:51:03;;;;;;;3.13;0.80;;;15.90;99.90;;;;;;5050252;28;20040;-77
2022/09/20 11:53:53;;;;;;;2.95;0.90;;;16.00;99.90;;;;;;5052982;28;20021;-76
2022/09/20 11:56:24;;;;;;;3.17;0.70;;;16.10;99.90;;;;;;5040469;28;20027;-77
2022/09/20 11:58:51;;;;;;;5.78;0.90;;;16.10;99.90;;;;;;5053950;28;20056;-77
2022/09/20 12:01:33;;;;;;;2.75;0.85;;;16.20;99.90;;;;;;5038149;28;20084;-78
2022/09/20 12:04:05;;;;;;;7.60;0.73;;;16.20;99.90;;;;;;5043411;28;20026;-77
2022/09/20 12:06:37;;;;;;;3.72;0.98;;;16.20;99.90;;;;;;5035784;28;20048;-78
2022/09/20 12:09:25;;;;;;;2.03;0.60;;;16.30;99.90;;;;;;5039153;28;20080;-77
2022/09/20 12:11:51;;;;;;;5.43;1.05;;;16.50;99.90;;;;;;5039595;28;20045;-76
2022/09/20 12:14:26;;;;;;;2.47;0.60;;;16.60;99.90;;;;;;5035051;28;20497;-76
2022/09/20 12:16:52;;;;;;;3.13;1.08;;;16.70;99.90;;;;;;5036393;28;20013;-76
2022/09/20 12:19:33;;;;;;;3.00;0.93;;;16.80;99.90;;;;;;5038578;28;20072;-76
2022/09/20 12:21:58;;;;;;;2.25;0.57;;;16.90;99.90;;;;;;5032362;28;20021;-78
2022/09/20 12:24:30;;;;;;;6.63;1.15;;;17.20;99.90;;;;;;5034282;28;20437;-78
2022/09/20 12:27:05;;;;;;;2.10;0.80;;;17.30;99.90;;;;;;5035542;28;20040;-78
2022/09/20 12:29:31;;;;;;;4.82;1.00;;;17.30;99.90;;;;;;5039582;28;20354;-76
2022/09/20 12:32:00;;;;;;;4.88;0.90;;;17.30;99.90;;;;;;5035538;28;20021;-77
2022/09/20 12:34:32;;;;;;;2.17;0.82;;;17.20;99.90;;;;;;5033835;28;20030;-77
2022/09/20 12:36:58;;;;;;;4.57;1.05;;;17.00;99.90;;;;;;5047097;28;20017;-77
2022/09/20 12:39:26;;;;;;;4.28;0.90;;;16.90;99.90;;;;;;5043660;28;20060;-78
2022/09/20 12:41:57;;;;;;;2.17;0.57;;;16.80;99.90;;;;;;5050492;28;20074;-79
2022/09/20 12:44:38;;;;;;;5.38;1.00;;;16.70;99.90;;;;;;5045274;28;20026;-77
2022/09/20 12:47:15;;;;;;;;;;;16.40;99.90;;;;;;5037046;28;20018;-80
2022/09/20 12:55:45;;;;;;;4.65;1.13;;;16.20;99.90;;;;;;5033759;28;20390;-79
2022/09/20 12:58:12;;;;;;;3.50;0.90;;;16.10;99.90;;;;;;5033503;28;20132;-78
2022/09/20 13:00:49;;;;;;;6.40;1.30;;;16.00;99.90;;;;;;5034173;28;20052;-79
2022/09/20 13:03:34;;;;;;;8.98;1.10;;;15.90;99.90;;;;;;5033293;28;20033;-81
2022/09/20 13:06:05;;;;;;;3.58;1.00;;;15.80;99.90;;;;;;5033408;28;20105;-81
2022/09/20 13:09:00;;;;;;;2.40;0.77;;;15.70;99.90;;;;;;5033493;28;20071;-81
2022/09/20 13:11:54;;;;;;;1.73;0.80;;;15.60;99.90;;;;;;5032765;28;20034;-82
2022/09/20 13:14:21;;;;;;;3.65;0.70;;;15.70;99.90;;;;;;5034652;28;20053;-82
2022/09/20 13:17:02;;;;;;;3.13;1.05;;;15.70;99.90;;;;;;5034064;28;20025;-79
2022/09/20 13:19:36;;;;;;;2.38;0.90;;;15.70;99.90;;;;;;5040447;28;20084;-81
2022/09/20 13:22:17;;;;;;;2.60;0.80;;;15.70;99.90;;;;;;5032729;28;20022;-80
2022/09/20 13:24:47;;;;;;;6.80;1.33;;;15.80;99.90;;;;;;5047302;28;20028;-80
2022/09/20 13:27:22;;;;;;;2.00;0.73;;;15.90;99.90;;;;;;5053234;28;20052;-81
2022/09/20 13:29:48;;;;;;;2.00;0.98;;;16.00;99.90;;;;;;5053836;28;20028;-80
2022/09/20 13:32:22;;;;;;;1.55;0.60;;;16.10;99.90;;;;;;5052279;28;20465;-80
2022/09/20 13:35:17;;;;;;;4.18;0.70;;;16.10;99.90;;;;;;5053444;28;20021;-80
2022/09/20 13:38:00;;;;;;;4.57;1.10;;;16.30;99.90;;;;;;5052039;28;20061;-81
2022/09/20 13:40:34;;;;;;;3.05;0.90;;;16.20;99.90;;;;;;5053058;28;20027;-80
2022/09/20 13:43:04;;;;;;;2.67;1.00;;;16.30;99.90;;;;;;5053901;28;20056;-81
2022/09/20 13:45:31;;;;;;;3.28;0.98;;;16.50;99.90;;;;;;5052856;28;20040;-80
2022/09/20 13:48:00;;;;;;;2.33;0.65;;;16.70;99.90;;;;;;5053046;28;20040;-81
2022/09/20 13:50:25;;;;;;;3.10;0.90;;;16.90;99.90;;;;;;5037744;28;20029;-80
2022/09/20 13:52:54;;;;;;;6.18;0.90;;;17.30;99.90;;;;;;5034118;28;20424;-79
2022/09/20 13:55:35;;;;;;;3.90;1.00;;;17.50;99.90;;;;;;5040589;28;20029;-79
2022/09/20 13:58:47;;;;;;;2.92;0.60;;;17.90;99.90;;;;;;5033715;28;20039;-79
2022/09/20 14:01:23;;;;;;;2.10;1.05;;;18.20;99.90;;;;;;5034008;28;20033;-79